createdAt,value
2019-05-26T00:00:45.639Z,12.94
2019-05-26T00:01:45.639Z,12.97
2019-05-26T00:02:45.404Z,13
2019-05-26T00:03:45.400Z,13
2019-05-26T00:04:45.642Z,13.01
2019-05-26T00:05:45.623Z,13
2019-05-26T00:06:45.365Z,12.97
2019-05-26T00:07:45.619Z,12.9
2019-05-26T00:08:45.626Z,12.85
2019-05-26T00:09:51.649Z,12.8
2019-05-26T00:10:45.610Z,12.78
2019-05-26T00:11:45.595Z,12.8
2019-05-26T00:12:45.596Z,12.85
2019-05-26T00:13:45.347Z,12.82
2019-05-26T00:14:45.592Z,12.79
2019-05-26T00:15:45.588Z,12.82
2019-05-26T00:16:45.101Z,12.83
2019-05-26T00:17:45.324Z,12.78
2019-05-26T00:18:45.577Z,12.79
2019-05-26T00:19:45.325Z,12.8
2019-05-26T00:20:48.598Z,12.8
2019-05-26T00:21:45.565Z,12.82
2019-05-26T00:22:45.548Z,12.9
2019-05-26T00:23:45.545Z,13.03
2019-05-26T00:24:45.045Z,12.97
2019-05-26T00:25:45.293Z,12.95
2019-05-26T00:26:45.310Z,12.97
2019-05-26T00:27:45.277Z,13.04
2019-05-26T00:28:45.285Z,12.97
2019-05-26T00:29:45.327Z,13.04
2019-05-26T00:30:45.948Z,12.98
2019-05-26T00:31:48.328Z,13.01
2019-05-26T00:32:45.309Z,12.98
2019-05-26T00:33:45.513Z,12.98
2019-05-26T00:34:45.511Z,13
2019-05-26T00:35:45.511Z,13.03
2019-05-26T00:36:45.498Z,13.04
2019-05-26T00:37:53.593Z,13.01
2019-05-26T00:38:45.247Z,13
2019-05-26T00:39:45.247Z,12.91
2019-05-26T00:40:45.497Z,12.91
2019-05-26T00:41:48.281Z,12.91
2019-05-26T00:42:45.538Z,12.93
2019-05-26T00:43:45.492Z,12.94
2019-05-26T00:44:45.470Z,12.85
2019-05-26T00:45:45.313Z,12.9
2019-05-26T00:46:45.214Z,12.82
2019-05-26T00:47:44.968Z,12.85
2019-05-26T00:48:45.206Z,12.82
2019-05-26T00:49:45.454Z,12.82
2019-05-26T00:50:45.518Z,12.78
2019-05-26T00:51:45.451Z,12.86
2019-05-26T00:52:47.977Z,12.82
2019-05-26T00:53:45.431Z,12.86
2019-05-26T00:54:45.230Z,12.8
2019-05-26T00:55:45.183Z,12.85
2019-05-26T00:56:45.168Z,12.85
2019-05-26T00:57:45.159Z,12.79
2019-05-26T00:58:45.412Z,12.85
2019-05-26T00:59:45.159Z,12.82
2019-05-26T01:00:45.419Z,12.68
2019-05-26T01:01:44.907Z,12.75
2019-05-26T01:02:45.152Z,12.68
2019-05-26T01:03:51.421Z,12.73
2019-05-26T01:04:45.157Z,12.78
2019-05-26T01:05:45.389Z,12.73
2019-05-26T01:06:45.134Z,12.76
2019-05-26T01:07:44.881Z,12.7
2019-05-26T01:08:45.159Z,12.79
2019-05-26T01:09:45.178Z,12.76
2019-05-26T01:10:45.359Z,12.76
2019-05-26T01:11:45.117Z,12.8
2019-05-26T01:12:45.126Z,12.78
2019-05-26T01:13:46.763Z,12.83
2019-05-26T01:14:48.145Z,12.8
2019-05-26T01:15:45.106Z,12.8
2019-05-26T01:16:44.856Z,12.82
2019-05-26T01:17:44.847Z,12.75
2019-05-26T01:18:45.094Z,12.7
2019-05-26T01:19:45.380Z,12.67
2019-05-26T01:20:45.323Z,12.67
2019-05-26T01:21:45.335Z,12.57
2019-05-26T01:22:45.083Z,12.54
2019-05-26T01:23:45.331Z,12.49
2019-05-26T01:24:49.926Z,12.53
2019-05-26T01:25:45.061Z,12.46
2019-05-26T01:26:45.058Z,12.43
2019-05-26T01:27:45.057Z,12.49
2019-05-26T01:28:45.039Z,12.39
2019-05-26T01:29:45.304Z,12.4
2019-05-26T01:30:45.288Z,12.39
2019-05-26T01:31:45.308Z,12.42
2019-05-26T01:32:44.785Z,12.35
2019-05-26T01:33:45.304Z,12.35
2019-05-26T01:34:45.281Z,12.39
2019-05-26T01:35:48.065Z,12.32
2019-05-26T01:36:45.275Z,12.25
2019-05-26T01:37:45.016Z,12.25
2019-05-26T01:38:45.004Z,12.22
2019-05-26T01:39:46.214Z,12.15
2019-05-26T01:40:45.266Z,12.24
2019-05-26T01:41:44.757Z,12.22
2019-05-26T01:42:45.234Z,12.22
2019-05-26T01:43:45.266Z,12.21
2019-05-26T01:44:45.226Z,12.18
2019-05-26T01:45:44.995Z,12.21
2019-05-26T01:46:46.637Z,12.17
2019-05-26T01:47:45.216Z,12.1
2019-05-26T01:48:45.224Z,12.09
2019-05-26T01:49:45.213Z,12.13
2019-05-26T01:50:44.957Z,12.12
2019-05-26T01:51:44.961Z,12.13
2019-05-26T01:52:44.722Z,12.17
2019-05-26T01:53:45.205Z,12.06
2019-05-26T01:54:45.903Z,12.09
2019-05-26T01:55:44.955Z,12.06
2019-05-26T01:56:47.960Z,12
2019-05-26T01:57:51.228Z,11.94
2019-05-26T01:58:45.171Z,11.91
2019-05-26T01:59:44.922Z,11.97
2019-05-26T02:00:44.970Z,11.94
2019-05-26T02:01:45.162Z,11.99
2019-05-26T02:02:44.913Z,12.09
2019-05-26T02:03:45.141Z,12
2019-05-26T02:04:44.919Z,11.97
2019-05-26T02:05:44.901Z,12.02
2019-05-26T02:06:45.149Z,11.97
2019-05-26T02:07:50.927Z,11.97
2019-05-26T02:08:45.124Z,11.97
2019-05-26T02:09:45.133Z,11.95
2019-05-26T02:10:44.913Z,11.99
2019-05-26T02:11:45.121Z,12
2019-05-26T02:12:44.869Z,11.99
2019-05-26T02:13:44.911Z,12.04
2019-05-26T02:14:44.853Z,12.17
2019-05-26T02:15:45.088Z,12.1
2019-05-26T02:16:45.080Z,12.02
2019-05-26T02:17:45.148Z,12.04
2019-05-26T02:18:47.865Z,11.97
2019-05-26T02:19:45.077Z,11.84
2019-05-26T02:20:45.078Z,11.9
2019-05-26T02:21:44.824Z,11.88
2019-05-26T02:22:44.818Z,11.88
2019-05-26T02:23:45.058Z,11.81
2019-05-26T02:24:45.057Z,11.81
2019-05-26T02:25:45.134Z,11.84
2019-05-26T02:26:44.796Z,11.8
2019-05-26T02:27:44.561Z,11.75
2019-05-26T02:28:45.416Z,11.69
2019-05-26T02:29:47.565Z,11.7
2019-05-26T02:30:45.036Z,11.55
2019-05-26T02:31:44.812Z,11.57
2019-05-26T02:32:44.778Z,11.62
2019-05-26T02:33:45.061Z,11.63
2019-05-26T02:34:44.779Z,11.54
2019-05-26T02:35:45.112Z,11.51
2019-05-26T02:36:44.803Z,11.44
2019-05-26T02:37:44.502Z,11.44
2019-05-26T02:39:06.122Z,11.4
2019-05-26T02:39:48.036Z,11.51
2019-05-26T02:40:49.693Z,11.4
2019-05-26T02:41:44.992Z,11.37
2019-05-26T02:42:44.496Z,11.51
2019-05-26T02:43:44.988Z,11.33
2019-05-26T02:44:44.999Z,11.44
2019-05-26T02:45:44.968Z,11.52
2019-05-26T02:46:44.761Z,11.4
2019-05-26T02:47:44.473Z,11.51
2019-05-26T02:48:44.994Z,11.43
2019-05-26T02:49:44.706Z,11.43
2019-05-26T02:50:47.106Z,11.35
2019-05-26T02:51:44.705Z,11.4
2019-05-26T02:52:44.700Z,11.36
2019-05-26T02:53:44.766Z,11.43
2019-05-26T02:54:44.959Z,11.44
2019-05-26T02:55:44.730Z,11.47
2019-05-26T02:56:44.943Z,11.44
2019-05-26T02:57:44.924Z,11.32
2019-05-26T02:58:44.668Z,11.36
2019-05-26T02:59:44.924Z,11.43
2019-05-26T03:00:44.985Z,11.47
2019-05-26T03:02:07.231Z,11.35
2019-05-26T03:02:44.653Z,11.35
2019-05-26T03:03:44.884Z,11.29
2019-05-26T03:04:44.891Z,11.43
2019-05-26T03:05:44.894Z,11.43
2019-05-26T03:06:44.704Z,11.33
2019-05-26T03:07:44.665Z,11.37
2019-05-26T03:08:44.894Z,11.35
2019-05-26T03:09:44.617Z,11.35
2019-05-26T03:10:45.970Z,11.4
2019-05-26T03:11:46.029Z,11.45
2019-05-26T03:12:47.907Z,11.36
2019-05-26T03:13:44.612Z,11.33
2019-05-26T03:14:44.593Z,11.32
2019-05-26T03:15:44.400Z,11.33
2019-05-26T03:16:44.604Z,11.33
2019-05-26T03:17:44.631Z,11.3
2019-05-26T03:18:44.576Z,11.23
2019-05-26T03:19:44.825Z,11.25
2019-05-26T03:20:44.342Z,11.17
2019-05-26T03:21:44.561Z,11.15
2019-05-26T03:22:47.900Z,11.29
2019-05-26T03:23:44.553Z,11.27
2019-05-26T03:24:44.569Z,11.26
2019-05-26T03:25:44.542Z,11.25
2019-05-26T03:26:44.540Z,11.27
2019-05-26T03:27:44.314Z,11.17
2019-05-26T03:28:44.771Z,11.25
2019-05-26T03:29:44.766Z,11.15
2019-05-26T03:30:44.814Z,11.17
2019-05-26T03:31:44.782Z,11.15
2019-05-26T03:32:44.535Z,11.17
2019-05-26T03:33:47.935Z,11.19
2019-05-26T03:34:44.781Z,11.26
2019-05-26T03:35:44.819Z,11.26
2019-05-26T03:36:44.488Z,11.26
2019-05-26T03:37:44.499Z,11.33
2019-05-26T03:38:44.512Z,11.4
2019-05-26T03:39:50.053Z,11.29
2019-05-26T03:40:44.478Z,11.37
2019-05-26T03:41:44.626Z,11.35
2019-05-26T03:42:44.483Z,11.36
2019-05-26T03:43:44.420Z,11.4
2019-05-26T03:44:47.494Z,11.29
2019-05-26T03:45:44.459Z,11.36
2019-05-26T03:46:44.695Z,11.43
2019-05-26T03:47:44.424Z,11.44
2019-05-26T03:48:44.691Z,11.41
2019-05-26T03:49:44.419Z,11.44
2019-05-26T03:50:44.670Z,11.37
2019-05-26T03:51:44.427Z,11.44
2019-05-26T03:52:44.411Z,11.36
2019-05-26T03:53:44.563Z,11.4
2019-05-26T03:54:47.701Z,11.35
2019-05-26T03:55:50.939Z,11.44
2019-05-26T03:56:44.449Z,11.43
2019-05-26T03:57:44.383Z,11.4
2019-05-26T03:58:44.388Z,11.41
2019-05-26T03:59:44.625Z,11.48
2019-05-26T04:00:44.642Z,11.54
2019-05-26T04:01:44.621Z,11.6
2019-05-26T04:02:44.122Z,11.57
2019-05-26T04:03:44.108Z,11.65
2019-05-26T04:04:44.367Z,11.68
2019-05-26T04:05:47.435Z,11.73
2019-05-26T04:06:44.337Z,11.77
2019-05-26T04:07:44.097Z,11.88
2019-05-26T04:08:44.492Z,11.87
2019-05-26T04:10:08.595Z,12.02
2019-05-26T04:10:44.569Z,12.09
2019-05-26T04:11:47.875Z,12.07
2019-05-26T04:12:44.570Z,12.15
2019-05-26T04:13:44.306Z,12.2
2019-05-26T04:14:44.615Z,12.07
2019-05-26T04:15:44.354Z,12.17
2019-05-26T04:16:47.627Z,12.18
2019-05-26T04:17:44.536Z,12.18
2019-05-26T04:18:44.605Z,12.2
2019-05-26T04:19:44.293Z,12.21
2019-05-26T04:20:48.278Z,12.24
2019-05-26T04:21:44.295Z,12.22
2019-05-26T04:22:44.512Z,12.32
2019-05-26T04:23:44.295Z,12.2
2019-05-26T04:24:44.261Z,12.29
2019-05-26T04:25:44.546Z,12.32
2019-05-26T04:26:45.932Z,12.35
2019-05-26T04:27:47.532Z,12.29
2019-05-26T04:28:44.254Z,12.29
2019-05-26T04:29:44.244Z,12.25
2019-05-26T04:30:44.505Z,12.36
2019-05-26T04:31:44.314Z,12.35
2019-05-26T04:32:44.494Z,12.31
2019-05-26T04:33:44.493Z,12.32
2019-05-26T04:34:44.500Z,12.25
2019-05-26T04:35:44.486Z,12.2
2019-05-26T04:36:44.242Z,12.24
2019-05-26T04:37:47.497Z,12.28
2019-05-26T04:38:44.265Z,12.27
2019-05-26T04:39:44.479Z,12.22
2019-05-26T04:40:44.478Z,12.27
2019-05-26T04:41:44.227Z,12.28
2019-05-26T04:42:44.483Z,12.29
2019-05-26T04:43:44.206Z,12.37
2019-05-26T04:44:44.447Z,12.25
2019-05-26T04:45:44.246Z,12.31
2019-05-26T04:46:43.947Z,12.22
2019-05-26T04:47:44.456Z,12.25
2019-05-26T04:48:47.530Z,12.36
2019-05-26T04:49:44.267Z,12.32
2019-05-26T04:50:44.200Z,12.29
2019-05-26T04:51:44.433Z,12.35
2019-05-26T04:53:04.320Z,12.2
2019-05-26T04:53:44.463Z,12.17
2019-05-26T04:54:44.164Z,12.1
2019-05-26T04:55:44.408Z,12.17
2019-05-26T04:56:44.436Z,12.09
2019-05-26T04:57:44.422Z,12.15
2019-05-26T04:58:44.404Z,12.09
2019-05-26T04:59:46.925Z,12.12
2019-05-26T05:00:44.395Z,12.07
2019-05-26T05:01:44.198Z,12.04
2019-05-26T05:02:44.372Z,12.18
2019-05-26T05:03:44.150Z,12.15
2019-05-26T05:04:44.120Z,12.29
2019-05-26T05:05:44.373Z,12.42
2019-05-26T05:06:44.127Z,12.37
2019-05-26T05:07:44.127Z,12.39
2019-05-26T05:08:44.116Z,12.49
2019-05-26T05:09:45.270Z,12.46
2019-05-26T05:10:50.213Z,12.55
2019-05-26T05:11:44.098Z,12.61
2019-05-26T05:12:44.095Z,12.58
2019-05-26T05:13:44.093Z,12.65
2019-05-26T05:14:44.093Z,12.7
2019-05-26T05:15:44.088Z,12.72
2019-05-26T05:16:44.330Z,12.75
2019-05-26T05:17:44.084Z,12.79
2019-05-26T05:18:44.371Z,12.98
2019-05-26T05:19:44.379Z,12.95
2019-05-26T05:20:50.115Z,13.13
2019-05-26T05:21:44.072Z,13.15
2019-05-26T05:22:44.348Z,13.27
2019-05-26T05:23:44.064Z,13.41
2019-05-26T05:24:44.299Z,13.57
2019-05-26T05:25:44.084Z,13.7
2019-05-26T05:26:44.298Z,13.95
2019-05-26T05:27:44.117Z,14.05
2019-05-26T05:28:44.289Z,14.2
2019-05-26T05:29:44.284Z,14.22
2019-05-26T05:30:44.043Z,14.32
2019-05-26T05:31:47.326Z,14.32
2019-05-26T05:32:44.329Z,14.35
2019-05-26T05:33:44.284Z,14.43
2019-05-26T05:34:44.027Z,14.66
2019-05-26T05:35:44.028Z,14.97
2019-05-26T05:36:44.073Z,15.35
2019-05-26T05:37:44.279Z,15.55
2019-05-26T05:38:44.023Z,15.73
2019-05-26T05:39:44.039Z,15.95
2019-05-26T05:41:00.664Z,16.24
2019-05-26T05:41:44.636Z,16.32
2019-05-26T05:42:48.465Z,16.16
2019-05-26T05:43:44.031Z,15.82
2019-05-26T05:44:44.034Z,15.46
2019-05-26T05:45:44.294Z,15.25
2019-05-26T05:46:43.795Z,15.37
2019-05-26T05:47:44.036Z,15.54
2019-05-26T05:48:44.024Z,15.83
2019-05-26T05:49:44.292Z,16.31
2019-05-26T05:50:44.161Z,16.66
2019-05-26T05:51:44.277Z,16.91
2019-05-26T05:52:47.324Z,17.34
2019-05-26T05:53:50.563Z,17.74
2019-05-26T05:54:44.051Z,17.95
2019-05-26T05:55:44.033Z,17.87
2019-05-26T05:56:44.040Z,17.8
2019-05-26T05:57:44.279Z,17.7
2019-05-26T05:58:44.034Z,17.54
2019-05-26T05:59:44.058Z,17.44
2019-05-26T06:00:44.296Z,17.64
2019-05-26T06:01:44.305Z,17.78
2019-05-26T06:02:44.281Z,18.07
2019-05-26T06:03:45.221Z,18.26
2019-05-26T06:04:44.303Z,18.49
2019-05-26T06:05:44.071Z,18.63
2019-05-26T06:06:44.052Z,18.99
2019-05-26T06:07:43.800Z,19.29
2019-05-26T06:08:44.300Z,19.54
2019-05-26T06:09:44.053Z,19.67
2019-05-26T06:10:43.816Z,19.82
2019-05-26T06:11:44.076Z,20.09
2019-05-26T06:12:44.104Z,20.36
2019-05-26T06:13:44.076Z,20.55
2019-05-26T06:14:47.442Z,20.69
2019-05-26T06:15:43.845Z,20.51
2019-05-26T06:16:44.347Z,20.41
2019-05-26T06:17:44.368Z,20.5
2019-05-26T06:18:44.094Z,20.5
2019-05-26T06:19:44.133Z,20.55
2019-05-26T06:20:44.361Z,20.59
2019-05-26T06:21:44.096Z,20.75
2019-05-26T06:22:44.131Z,20.87
2019-05-26T06:23:43.885Z,20.97
2019-05-26T06:24:44.712Z,21.07
2019-05-26T06:25:47.398Z,21.24
2019-05-26T06:26:43.875Z,21.42
2019-05-26T06:27:44.144Z,21.43
2019-05-26T06:28:44.124Z,21.03
2019-05-26T06:30:00.303Z,20.87
2019-05-26T06:30:44.135Z,20.87
2019-05-26T06:31:44.717Z,20.88
2019-05-26T06:32:44.387Z,20.97
2019-05-26T06:33:44.168Z,21.11
2019-05-26T06:34:44.166Z,21.37
2019-05-26T06:35:47.199Z,21.62
2019-05-26T06:36:44.173Z,21.61
2019-05-26T06:37:43.934Z,21.6
2019-05-26T06:38:44.170Z,21.27
2019-05-26T06:39:44.436Z,21.46
2019-05-26T06:40:43.939Z,21.57
2019-05-26T06:41:44.179Z,21.62
2019-05-26T06:42:43.960Z,21.79
2019-05-26T06:43:44.435Z,21.89
2019-05-26T06:44:58.267Z,22.07
2019-05-26T06:45:44.437Z,22.18
2019-05-26T06:46:45.860Z,22.25
2019-05-26T06:47:43.986Z,22.04
2019-05-26T06:48:44.212Z,22.11
2019-05-26T06:49:44.471Z,22.17
2019-05-26T06:50:44.486Z,22.25
2019-05-26T06:51:44.482Z,22.02
2019-05-26T06:52:44.227Z,22.11
2019-05-26T06:53:44.247Z,22.28
2019-05-26T06:54:44.492Z,22.43
2019-05-26T06:55:44.508Z,22.3
2019-05-26T06:56:44.258Z,22.26
2019-05-26T06:57:47.539Z,22.23
2019-05-26T06:58:44.515Z,22.26
2019-05-26T06:59:44.020Z,22.18
2019-05-26T07:00:44.265Z,22.13
2019-05-26T07:01:44.282Z,22.14
2019-05-26T07:02:44.719Z,22.08
2019-05-26T07:03:44.284Z,22.13
2019-05-26T07:04:44.287Z,21.98
2019-05-26T07:05:44.533Z,21.83
2019-05-26T07:06:44.327Z,21.57
2019-05-26T07:07:45.470Z,21.32
2019-05-26T07:08:47.331Z,21
2019-05-26T07:09:44.318Z,21.07
2019-05-26T07:10:44.546Z,21.07
2019-05-26T07:12:05.859Z,21.27
2019-05-26T07:12:44.572Z,21.6
2019-05-26T07:13:44.653Z,21.69
2019-05-26T07:14:44.325Z,21.76
2019-05-26T07:15:44.570Z,21.66
2019-05-26T07:16:44.328Z,21.93
2019-05-26T07:17:44.346Z,22.22
2019-05-26T07:18:46.508Z,22.54
2019-05-26T07:19:44.389Z,22.59
2019-05-26T07:20:44.611Z,22.7
2019-05-26T07:21:44.596Z,22.96
2019-05-26T07:22:44.352Z,22.91
2019-05-26T07:23:44.369Z,23.1
2019-05-26T07:24:44.371Z,23.18
2019-05-26T07:25:44.623Z,23.47
2019-05-26T07:26:44.372Z,23.4
2019-05-26T07:27:44.619Z,23.27
2019-05-26T07:28:44.432Z,23.39
2019-05-26T07:29:47.445Z,22.99
2019-05-26T07:30:44.388Z,22.63
2019-05-26T07:31:44.638Z,22.76
2019-05-26T07:32:44.245Z,22.94
2019-05-26T07:33:44.687Z,23.02
2019-05-26T07:34:44.694Z,23.34
2019-05-26T07:35:44.419Z,23.63
2019-05-26T07:36:44.439Z,23.96
2019-05-26T07:37:44.176Z,24.2
2019-05-26T07:38:44.684Z,24.36
2019-05-26T07:39:44.679Z,24.63
2019-05-26T07:40:50.700Z,24.88
2019-05-26T07:41:44.435Z,24.99
2019-05-26T07:42:44.695Z,25.4
2019-05-26T07:43:45.005Z,25.44
2019-05-26T07:44:44.462Z,25.6
2019-05-26T07:45:44.725Z,25.63
2019-05-26T07:46:44.473Z,25.73
2019-05-26T07:47:44.470Z,26.02
2019-05-26T07:48:44.735Z,26.03
2019-05-26T07:49:44.737Z,26.07
2019-05-26T07:50:45.917Z,26.09
2019-05-26T07:51:47.801Z,26.28
2019-05-26T07:52:44.770Z,26.36
2019-05-26T07:53:44.762Z,26.44
2019-05-26T07:54:44.267Z,26.48
2019-05-26T07:55:44.790Z,26.36
2019-05-26T07:56:44.772Z,26.47
2019-05-26T07:57:44.777Z,26.44
2019-05-26T07:58:44.589Z,26.48
2019-05-26T07:59:44.545Z,26.58
2019-05-26T08:00:44.558Z,26.62
2019-05-26T08:01:47.845Z,26.68
2019-05-26T08:02:44.563Z,26.56
2019-05-26T08:03:44.579Z,26.6
2019-05-26T08:04:44.584Z,26.51
2019-05-26T08:05:44.640Z,26.56
2019-05-26T08:06:44.343Z,26.97
2019-05-26T08:07:44.598Z,27.1
2019-05-26T08:08:44.875Z,27.18
2019-05-26T08:09:44.619Z,27.2
2019-05-26T08:10:44.870Z,27.29
2019-05-26T08:11:44.871Z,27.54
2019-05-26T08:12:47.670Z,27.59
2019-05-26T08:13:45.196Z,27.68
2019-05-26T08:14:44.909Z,27.86
2019-05-26T08:15:44.767Z,27.93
2019-05-26T08:16:44.919Z,27.77
2019-05-26T08:17:44.954Z,27.82
2019-05-26T08:18:44.682Z,27.64
2019-05-26T08:19:44.948Z,27.42
2019-05-26T08:20:44.456Z,27.3
2019-05-26T08:21:44.693Z,27.4
2019-05-26T08:22:44.706Z,27.59
2019-05-26T08:23:51.256Z,27.6
2019-05-26T08:24:44.969Z,27.65
2019-05-26T08:25:44.797Z,27.47
2019-05-26T08:26:44.972Z,27.55
2019-05-26T08:27:44.491Z,27.42
2019-05-26T08:28:44.980Z,27.27
2019-05-26T08:29:45.010Z,27.03
2019-05-26T08:30:45.005Z,26.96
2019-05-26T08:31:44.514Z,26.8
2019-05-26T08:32:44.781Z,26.83
2019-05-26T08:33:46.436Z,26.7
2019-05-26T08:34:48.068Z,26.47
2019-05-26T08:35:44.639Z,26.52
2019-05-26T08:36:45.039Z,26.43
2019-05-26T08:37:44.806Z,26.4
2019-05-26T08:38:45.059Z,26.21
2019-05-26T08:39:48.245Z,26.19
2019-05-26T08:40:45.066Z,25.88
2019-05-26T08:41:44.831Z,25.78
2019-05-26T08:42:49.227Z,25.83
2019-05-26T08:43:45.108Z,25.77
2019-05-26T08:44:49.401Z,25.73
2019-05-26T08:45:44.855Z,25.69
2019-05-26T08:46:44.872Z,25.85
2019-05-26T08:47:45.108Z,25.65
2019-05-26T08:48:45.125Z,25.16
2019-05-26T08:49:44.877Z,24.91
2019-05-26T08:50:45.174Z,24.63
2019-05-26T08:51:45.147Z,24.3
2019-05-26T08:52:44.896Z,23.92
2019-05-26T08:53:44.654Z,23.58
2019-05-26T08:54:45.153Z,23.15
2019-05-26T08:55:47.956Z,22.55
2019-05-26T08:56:44.931Z,22.26
2019-05-26T08:57:45.190Z,22.23
2019-05-26T08:58:45.191Z,22.18
2019-05-26T08:59:44.945Z,22.11
2019-05-26T09:00:45.222Z,22.1
2019-05-26T09:01:44.702Z,21.99
2019-05-26T09:02:44.704Z,21.72
2019-05-26T09:03:45.210Z,21.7
2019-05-26T09:04:44.965Z,21.77
2019-05-26T09:05:45.235Z,21.8
2019-05-26T09:06:52.098Z,21.76
2019-05-26T09:07:45.238Z,21.73
2019-05-26T09:08:45.238Z,21.76
2019-05-26T09:09:45.244Z,21.61
2019-05-26T09:10:44.992Z,21.52
2019-05-26T09:11:45.002Z,21.25
2019-05-26T09:12:59.554Z,21.06
2019-05-26T09:13:44.997Z,21.12
2019-05-26T09:14:45.308Z,21.14
2019-05-26T09:15:44.760Z,21.24
2019-05-26T09:16:46.694Z,21.48
2019-05-26T09:17:48.056Z,21.62
2019-05-26T09:18:45.287Z,21.73
2019-05-26T09:19:45.047Z,21.82
2019-05-26T09:20:45.038Z,22
2019-05-26T09:21:45.295Z,21.98
2019-05-26T09:22:45.048Z,21.89
2019-05-26T09:23:45.032Z,21.8
2019-05-26T09:24:45.044Z,21.79
2019-05-26T09:25:48.860Z,21.7
2019-05-26T09:26:45.309Z,21.88
2019-05-26T09:27:47.843Z,21.98
2019-05-26T09:28:45.064Z,22.11
2019-05-26T09:29:45.066Z,22.29
2019-05-26T09:30:45.326Z,22.32
2019-05-26T09:31:45.319Z,22.33
2019-05-26T09:32:45.075Z,22.55
2019-05-26T09:33:45.319Z,22.75
2019-05-26T09:34:45.329Z,22.84
2019-05-26T09:35:45.323Z,22.87
2019-05-26T09:36:45.085Z,23.03
2019-05-26T09:37:45.083Z,23.15
2019-05-26T09:38:48.131Z,23.17
2019-05-26T09:39:45.095Z,23.2
2019-05-26T09:40:45.353Z,23.21
2019-05-26T09:41:45.107Z,23
2019-05-26T09:42:44.896Z,22.87
2019-05-26T09:43:44.859Z,22.66
2019-05-26T09:44:45.360Z,22.63
2019-05-26T09:45:45.115Z,22.55
2019-05-26T09:46:45.366Z,22.55
2019-05-26T09:47:44.891Z,22.6
2019-05-26T09:48:45.328Z,22.59
2019-05-26T09:49:47.532Z,22.66
2019-05-26T09:50:45.126Z,22.57
2019-05-26T09:51:45.132Z,22.6
2019-05-26T09:52:45.384Z,22.54
2019-05-26T09:53:45.136Z,22.35
2019-05-26T09:54:44.907Z,22.25
2019-05-26T09:55:45.151Z,22.22
2019-05-26T09:56:45.407Z,22.08
2019-05-26T09:57:45.400Z,21.89
2019-05-26T09:58:44.901Z,21.88
2019-05-26T09:59:48.188Z,21.92
2019-05-26T10:00:51.438Z,22
2019-05-26T10:01:45.158Z,22.26
2019-05-26T10:02:44.926Z,22.33
2019-05-26T10:03:45.301Z,22.35
2019-05-26T10:04:45.181Z,22.35
2019-05-26T10:05:45.423Z,22.45
2019-05-26T10:06:45.201Z,22.45
2019-05-26T10:07:45.426Z,22.55
2019-05-26T10:08:45.503Z,22.53
2019-05-26T10:09:45.186Z,22.7
2019-05-26T10:10:51.466Z,22.69
2019-05-26T10:11:45.459Z,22.75
2019-05-26T10:12:44.973Z,22.7
2019-05-26T10:13:45.478Z,22.51
2019-05-26T10:14:47.727Z,22.47
2019-05-26T10:15:45.457Z,22.38
2019-05-26T10:16:45.214Z,22.25
2019-05-26T10:17:45.263Z,22.08
2019-05-26T10:18:45.453Z,21.96
2019-05-26T10:19:45.577Z,21.92
2019-05-26T10:20:45.497Z,21.79
2019-05-26T10:21:48.520Z,21.7
2019-05-26T10:22:45.327Z,21.75
2019-05-26T10:23:45.234Z,21.7
2019-05-26T10:24:45.248Z,21.6
2019-05-26T10:25:45.484Z,21.61
2019-05-26T10:26:45.502Z,21.48
2019-05-26T10:27:45.238Z,21.51
2019-05-26T10:28:45.243Z,21.43
2019-05-26T10:29:45.261Z,21.45
2019-05-26T10:30:45.593Z,21.64
2019-05-26T10:31:45.625Z,21.58
2019-05-26T10:32:48.053Z,21.52
2019-05-26T10:33:45.516Z,21.55
2019-05-26T10:34:45.257Z,21.55
2019-05-26T10:35:45.518Z,21.67
2019-05-26T10:36:45.290Z,21.75
2019-05-26T10:37:45.560Z,21.92
2019-05-26T10:38:45.539Z,22
2019-05-26T10:39:47.633Z,21.99
2019-05-26T10:40:45.279Z,22
2019-05-26T10:41:45.270Z,22.07
2019-05-26T10:42:48.102Z,22.14
2019-05-26T10:43:53.686Z,22.13
2019-05-26T10:44:45.551Z,22
2019-05-26T10:45:45.521Z,22
2019-05-26T10:46:45.305Z,22.25
2019-05-26T10:47:45.056Z,22.29
2019-05-26T10:48:45.305Z,22.35
2019-05-26T10:49:45.296Z,22.44
2019-05-26T10:50:45.553Z,22.47
2019-05-26T10:51:45.553Z,22.68
2019-05-26T10:52:45.153Z,22.63
2019-05-26T10:53:46.505Z,22.57
2019-05-26T10:54:45.073Z,22.55
2019-05-26T10:55:45.569Z,22.51
2019-05-26T10:56:45.310Z,22.57
2019-05-26T10:57:45.351Z,22.43
2019-05-26T10:58:45.335Z,22.36
2019-05-26T10:59:45.580Z,22.32
2019-05-26T11:00:45.383Z,22.26
2019-05-26T11:01:45.580Z,22.23
2019-05-26T11:02:45.417Z,22.23
2019-05-26T11:03:45.607Z,22.28
2019-05-26T11:04:48.387Z,22.35
2019-05-26T11:05:45.353Z,22.36
2019-05-26T11:06:45.636Z,22.32
2019-05-26T11:07:45.126Z,22.32
2019-05-26T11:08:45.357Z,22.28
2019-05-26T11:09:45.372Z,22.26
2019-05-26T11:10:45.603Z,22.3
2019-05-26T11:11:45.357Z,22.29
2019-05-26T11:12:45.627Z,22.3
2019-05-26T11:13:45.756Z,22.35
2019-05-26T11:14:45.741Z,22.26
2019-05-26T11:15:50.066Z,22.33
2019-05-26T11:16:45.378Z,22.3
2019-05-26T11:17:45.380Z,22.43
2019-05-26T11:18:45.625Z,22.47
2019-05-26T11:19:45.625Z,22.51
2019-05-26T11:20:45.388Z,22.41
2019-05-26T11:21:45.623Z,22.43
2019-05-26T11:22:45.642Z,22.45
2019-05-26T11:23:45.386Z,22.47
2019-05-26T11:24:45.644Z,22.54
2019-05-26T11:25:48.682Z,22.57
2019-05-26T11:26:45.648Z,22.65
2019-05-26T11:27:45.407Z,22.8
2019-05-26T11:28:45.644Z,22.76
2019-05-26T11:29:45.652Z,22.85
2019-05-26T11:30:45.716Z,22.91
2019-05-26T11:31:45.173Z,23.15
2019-05-26T11:32:45.205Z,23.2
2019-05-26T11:33:45.561Z,23.39
2019-05-26T11:34:58.819Z,23.44
2019-05-26T11:35:45.437Z,23.54
2019-05-26T11:36:48.486Z,23.56
2019-05-26T11:37:45.698Z,23.66
2019-05-26T11:38:45.439Z,23.93
2019-05-26T11:39:45.442Z,23.78
2019-05-26T11:40:45.792Z,23.66
2019-05-26T11:41:54.287Z,23.65
2019-05-26T11:42:49.539Z,23.68
2019-05-26T11:43:45.707Z,23.65
2019-05-26T11:44:45.705Z,23.54
2019-05-26T11:45:45.704Z,23.55
2019-05-26T11:46:45.505Z,23.48
2019-05-26T11:47:51.746Z,23.54
2019-05-26T11:48:45.719Z,23.32
2019-05-26T11:49:45.469Z,23.2
2019-05-26T11:50:45.480Z,23.21
2019-05-26T11:51:45.481Z,23.2
2019-05-26T11:52:45.253Z,23.13
2019-05-26T11:53:45.738Z,23.23
2019-05-26T11:54:45.505Z,23.41
2019-05-26T11:55:45.743Z,23.47
2019-05-26T11:56:45.496Z,23.5
2019-05-26T11:57:46.915Z,23.56
2019-05-26T11:58:48.800Z,23.47
2019-05-26T11:59:49.759Z,23.39
2019-05-26T12:00:45.764Z,23.48
2019-05-26T12:01:45.526Z,23.58
2019-05-26T12:02:45.289Z,23.66
2019-05-26T12:03:45.534Z,23.63
2019-05-26T12:04:45.530Z,23.66
2019-05-26T12:05:45.527Z,23.71
2019-05-26T12:06:45.812Z,23.63
2019-05-26T12:07:45.595Z,23.63
2019-05-26T12:08:48.568Z,23.78
2019-05-26T12:09:45.795Z,23.84
2019-05-26T12:10:45.295Z,24.03
2019-05-26T12:11:45.565Z,24.05
2019-05-26T12:12:45.556Z,24.16
2019-05-26T12:13:45.558Z,24.01
2019-05-26T12:14:45.925Z,23.93
2019-05-26T12:15:45.559Z,23.87
2019-05-26T12:16:48.820Z,23.74
2019-05-26T12:17:45.324Z,23.76
2019-05-26T12:18:45.831Z,23.91
2019-05-26T12:19:48.854Z,24.02
2019-05-26T12:20:45.336Z,24.02
2019-05-26T12:21:45.835Z,24.13
2019-05-26T12:22:45.592Z,24.17
2019-05-26T12:23:45.602Z,24.18
2019-05-26T12:24:45.601Z,24.13
2019-05-26T12:25:45.622Z,24.03
2019-05-26T12:26:45.678Z,23.99
2019-05-26T12:27:45.861Z,23.95
2019-05-26T12:28:45.859Z,23.88
2019-05-26T12:29:45.857Z,23.93
2019-05-26T12:30:47.216Z,24.02
2019-05-26T12:31:45.374Z,23.96
2019-05-26T12:32:45.990Z,24.1
2019-05-26T12:33:45.895Z,24.05
2019-05-26T12:34:45.909Z,24.08
2019-05-26T12:35:45.890Z,24.02
2019-05-26T12:36:45.921Z,23.91
2019-05-26T12:37:48.225Z,23.76
2019-05-26T12:38:45.646Z,23.68
2019-05-26T12:39:45.944Z,23.71
2019-05-26T12:40:47.312Z,23.68
2019-05-26T12:41:48.706Z,23.71
2019-05-26T12:42:45.670Z,23.91
2019-05-26T12:43:46.004Z,24.01
2019-05-26T12:44:54.737Z,24.11
2019-05-26T12:45:45.665Z,24.23
2019-05-26T12:46:45.688Z,24.11
2019-05-26T12:47:45.637Z,23.98
2019-05-26T12:48:45.689Z,23.77
2019-05-26T12:49:45.961Z,23.77
2019-05-26T12:50:45.940Z,23.61
2019-05-26T12:51:48.735Z,23.58
2019-05-26T12:52:45.467Z,23.41
2019-05-26T12:53:45.462Z,23.34
2019-05-26T12:54:45.980Z,23.13
2019-05-26T12:55:45.962Z,23.2
2019-05-26T12:56:45.473Z,23.18